sensor_id;sensor_type;location;lat;lon;timestamp;P1;durP1;ratioP1;P2;durP2;ratioP2
21519;SDS011;10921;53.614;9.882;2022-09-09T00:03:53;110.57;;;69.00;;
21519;SDS011;10921;53.614;9.882;2022-09-09T00:06:29;103.25;;;63.92;;
21519;SDS011;10921;53.614;9.882;2022-09-09T00:11:39;115.45;;;68.13;;
21519;SDS011;10921;53.614;9.882;2022-09-09T00:14:14;143.15;;;66.80;;
21519;SDS011;10921;53.614;9.882;2022-09-09T00:16:50;110.00;;;63.13;;
21519;SDS011;10921;53.614;9.882;2022-09-09T00:19:26;147.23;;;68.80;;
21519;SDS011;10921;53.614;9.882;2022-09-09T00:22:16;138.95;;;65.35;;
21519;SDS011;10921;53.614;9.882;2022-09-09T00:24:51;127.38;;;68.10;;
21519;SDS011;10921;53.614;9.882;2022-09-09T00:30:17;133.00;;;65.60;;
21519;SDS011;10921;53.614;9.882;2022-09-09T00:32:46;149.60;;;67.78;;
21519;SDS011;10921;53.614;9.882;2022-09-09T00:35:16;104.10;;;65.40;;
21519;SDS011;10921;53.614;9.882;2022-09-09T00:37:50;123.45;;;65.85;;
21519;SDS011;10921;53.614;9.882;2022-09-09T00:40:30;108.95;;;69.93;;
21519;SDS011;10921;53.614;9.882;2022-09-09T00:43:24;127.47;;;68.68;;
21519;SDS011;10921;53.614;9.882;2022-09-09T00:57:30;93.57;;;66.35;;
21519;SDS011;10921;53.614;9.882;2022-09-09T01:00:19;150.90;;;67.80;;
21519;SDS011;10921;53.614;9.882;2022-09-09T01:08:00;107.20;;;67.35;;
21519;SDS011;10921;53.614;9.882;2022-09-09T01:10:32;137.88;;;67.13;;
21519;SDS011;10921;53.614;9.882;2022-09-09T01:13:16;102.63;;;67.03;;
21519;SDS011;10921;53.614;9.882;2022-09-09T01:15:49;157.82;;;68.90;;
21519;SDS011;10921;53.614;9.882;2022-09-09T01:18:26;95.32;;;67.82;;
21519;SDS011;10921;53.614;9.882;2022-09-09T01:21:14;115.75;;;68.90;;
21519;SDS011;10921;53.614;9.882;2022-09-09T01:23:59;114.53;;;71.07;;
21519;SDS011;10921;53.614;9.882;2022-09-09T01:26:41;128.65;;;68.53;;
21519;SDS011;10921;53.614;9.882;2022-09-09T01:29:10;119.70;;;69.93;;
21519;SDS011;10921;53.614;9.882;2022-09-09T01:34:11;102.95;;;70.82;;
21519;SDS011;10921;53.614;9.882;2022-09-09T01:39:20;124.40;;;68.30;;
21519;SDS011;10921;53.614;9.882;2022-09-09T01:41:47;158.45;;;67.05;;
21519;SDS011;10921;53.614;9.882;2022-09-09T01:44:13;155.40;;;70.43;;
21519;SDS011;10921;53.614;9.882;2022-09-09T01:46:40;195.85;;;64.63;;
21519;SDS011;10921;53.614;9.882;2022-09-09T01:49:07;123.43;;;64.38;;
21519;SDS011;10921;53.614;9.882;2022-09-09T01:51:35;136.02;;;67.15;;
21519;SDS011;10921;53.614;9.882;2022-09-09T01:54:03;119.93;;;68.40;;
21519;SDS011;10921;53.614;9.882;2022-09-09T02:02:06;95.20;;;66.72;;
21519;SDS011;10921;53.614;9.882;2022-09-09T02:04:44;98.57;;;68.30;;
21519;SDS011;10921;53.614;9.882;2022-09-09T02:07:15;94.07;;;66.07;;
21519;SDS011;10921;53.614;9.882;2022-09-09T02:10:08;111.93;;;64.78;;
21519;SDS011;10921;53.614;9.882;2022-09-09T02:12:37;107.38;;;67.43;;
21519;SDS011;10921;53.614;9.882;2022-09-09T02:15:10;101.88;;;63.95;;
21519;SDS011;10921;53.614;9.882;2022-09-09T02:18:01;104.07;;;66.28;;
21519;SDS011;10921;53.614;9.882;2022-09-09T02:20:34;105.88;;;64.13;;
21519;SDS011;10921;53.614;9.882;2022-09-09T02:23:04;126.28;;;62.85;;
21519;SDS011;10921;53.614;9.882;2022-09-09T02:25:34;139.77;;;62.30;;
21519;SDS011;10921;53.614;9.882;2022-09-09T02:28:04;107.32;;;63.38;;
21519;SDS011;10921;53.614;9.882;2022-09-09T02:30:33;109.30;;;64.20;;
21519;SDS011;10921;53.614;9.882;2022-09-09T02:33:04;104.70;;;65.95;;
21519;SDS011;10921;53.614;9.882;2022-09-09T02:35:33;189.52;;;66.07;;
21519;SDS011;10921;53.614;9.882;2022-09-09T02:40:32;88.50;;;59.08;;
21519;SDS011;10921;53.614;9.882;2022-09-09T02:42:58;222.30;;;63.08;;
21519;SDS011;10921;53.614;9.882;2022-09-09T02:45:30;266.70;;;66.43;;
21519;SDS011;10921;53.614;9.882;2022-09-09T02:50:39;229.25;;;63.97;;
21519;SDS011;10921;53.614;9.882;2022-09-09T02:53:17;158.00;;;62.42;;
21519;SDS011;10921;53.614;9.882;2022-09-09T02:56:01;119.00;;;59.75;;
21519;SDS011;10921;53.614;9.882;2022-09-09T02:58:32;120.53;;;59.42;;
21519;SDS011;10921;53.614;9.882;2022-09-09T03:00:59;134.30;;;61.53;;
21519;SDS011;10921;53.614;9.882;2022-09-09T03:03:28;211.38;;;61.08;;
21519;SDS011;10921;53.614;9.882;2022-09-09T03:05:56;159.35;;;60.22;;
21519;SDS011;10921;53.614;9.882;2022-09-09T03:08:23;125.95;;;59.53;;
21519;SDS011;10921;53.614;9.882;2022-09-09T03:10:49;170.70;;;60.72;;
21519;SDS011;10921;53.614;9.882;2022-09-09T03:13:16;87.05;;;58.95;;
21519;SDS011;10921;53.614;9.882;2022-09-09T03:15:45;118.80;;;58.03;;
21519;SDS011;10921;53.614;9.882;2022-09-09T03:18:11;88.13;;;57.05;;
21519;SDS011;10921;53.614;9.882;2022-09-09T03:20:38;89.20;;;57.97;;
21519;SDS011;10921;53.614;9.882;2022-09-09T03:23:04;164.68;;;60.92;;
21519;SDS011;10921;53.614;9.882;2022-09-09T03:25:31;163.70;;;60.88;;
21519;SDS011;10921;53.614;9.882;2022-09-09T03:27:58;196.30;;;63.83;;
21519;SDS011;10921;53.614;9.882;2022-09-09T03:30:25;130.25;;;61.35;;
21519;SDS011;10921;53.614;9.882;2022-09-09T03:32:53;174.55;;;60.85;;
21519;SDS011;10921;53.614;9.882;2022-09-09T03:35:19;167.05;;;60.65;;
21519;SDS011;10921;53.614;9.882;2022-09-09T03:37:46;102.85;;;59.33;;
21519;SDS011;10921;53.614;9.882;2022-09-09T03:40:13;173.43;;;61.45;;
21519;SDS011;10921;53.614;9.882;2022-09-09T03:42:40;97.53;;;60.65;;
21519;SDS011;10921;53.614;9.882;2022-09-09T03:45:07;142.82;;;61.97;;
21519;SDS011;10921;53.614;9.882;2022-09-09T03:47:35;85.72;;;60.67;;
21519;SDS011;10921;53.614;9.882;2022-09-09T03:50:02;172.75;;;59.50;;
21519;SDS011;10921;53.614;9.882;2022-09-09T03:52:30;101.93;;;60.40;;
21519;SDS011;10921;53.614;9.882;2022-09-09T03:54:56;108.32;;;57.83;;
21519;SDS011;10921;53.614;9.882;2022-09-09T03:57:23;99.78;;;55.53;;
21519;SDS011;10921;53.614;9.882;2022-09-09T03:59:49;145.70;;;54.03;;
21519;SDS011;10921;53.614;9.882;2022-09-09T04:02:16;108.78;;;54.05;;
21519;SDS011;10921;53.614;9.882;2022-09-09T04:04:42;80.75;;;55.17;;
21519;SDS011;10921;53.614;9.882;2022-09-09T04:07:09;89.97;;;54.92;;
21519;SDS011;10921;53.614;9.882;2022-09-09T04:09:36;65.53;;;52.60;;
21519;SDS011;10921;53.614;9.882;2022-09-09T04:12:02;68.97;;;54.50;;
21519;SDS011;10921;53.614;9.882;2022-09-09T04:14:29;69.35;;;51.75;;
21519;SDS011;10921;53.614;9.882;2022-09-09T04:16:55;66.70;;;53.15;;
21519;SDS011;10921;53.614;9.882;2022-09-09T04:19:24;70.28;;;52.00;;
21519;SDS011;10921;53.614;9.882;2022-09-09T04:21:50;86.88;;;51.65;;
21519;SDS011;10921;53.614;9.882;2022-09-09T04:24:17;92.28;;;53.35;;
21519;SDS011;10921;53.614;9.882;2022-09-09T04:26:44;72.35;;;52.92;;
21519;SDS011;10921;53.614;9.882;2022-09-09T04:29:11;65.10;;;52.53;;
21519;SDS011;10921;53.614;9.882;2022-09-09T04:31:38;67.03;;;52.30;;
21519;SDS011;10921;53.614;9.882;2022-09-09T04:34:10;70.35;;;51.55;;
21519;SDS011;10921;53.614;9.882;2022-09-09T04:36:37;77.13;;;52.60;;
21519;SDS011;10921;53.614;9.882;2022-09-09T04:39:05;74.00;;;52.67;;
21519;SDS011;10921;53.614;9.882;2022-09-09T04:41:32;75.85;;;53.10;;
21519;SDS011;10921;53.614;9.882;2022-09-09T04:43:58;73.93;;;52.22;;
21519;SDS011;10921;53.614;9.882;2022-09-09T04:46:26;62.17;;;51.70;;
21519;SDS011;10921;53.614;9.882;2022-09-09T04:48:53;69.63;;;51.65;;
21519;SDS011;10921;53.614;9.882;2022-09-09T04:51:19;64.45;;;49.63;;
21519;SDS011;10921;53.614;9.882;2022-09-09T04:53:46;57.13;;;50.30;;
21519;SDS011;10921;53.614;9.882;2022-09-09T04:56:14;63.53;;;49.88;;
21519;SDS011;10921;53.614;9.882;2022-09-09T04:58:42;64.45;;;49.95;;
21519;SDS011;10921;53.614;9.882;2022-09-09T05:01:13;64.32;;;51.25;;
21519;SDS011;10921;53.614;9.882;2022-09-09T05:03:42;57.70;;;48.08;;
21519;SDS011;10921;53.614;9.882;2022-09-09T05:06:09;67.80;;;49.78;;
21519;SDS011;10921;53.614;9.882;2022-09-09T05:08:37;62.42;;;48.63;;
21519;SDS011;10921;53.614;9.882;2022-09-09T05:11:17;64.25;;;48.97;;
21519;SDS011;10921;53.614;9.882;2022-09-09T05:13:46;64.13;;;46.58;;
21519;SDS011;10921;53.614;9.882;2022-09-09T05:16:13;60.65;;;46.80;;
21519;SDS011;10921;53.614;9.882;2022-09-09T05:18:40;66.82;;;46.72;;
21519;SDS011;10921;53.614;9.882;2022-09-09T05:21:09;69.88;;;47.10;;
21519;SDS011;10921;53.614;9.882;2022-09-09T05:23:36;67.90;;;48.05;;
21519;SDS011;10921;53.614;9.882;2022-09-09T05:26:03;86.32;;;48.58;;
21519;SDS011;10921;53.614;9.882;2022-09-09T05:28:33;61.80;;;45.78;;
21519;SDS011;10921;53.614;9.882;2022-09-09T05:33:37;56.10;;;43.88;;
21519;SDS011;10921;53.614;9.882;2022-09-09T05:36:07;57.70;;;46.40;;
21519;SDS011;10921;53.614;9.882;2022-09-09T05:38:42;59.17;;;46.08;;
21519;SDS011;10921;53.614;9.882;2022-09-09T05:41:10;67.05;;;46.97;;
21519;SDS011;10921;53.614;9.882;2022-09-09T05:43:43;56.95;;;46.05;;
21519;SDS011;10921;53.614;9.882;2022-09-09T05:46:12;60.08;;;47.20;;
21519;SDS011;10921;53.614;9.882;2022-09-09T05:48:41;54.63;;;47.13;;
21519;SDS011;10921;53.614;9.882;2022-09-09T05:51:12;65.22;;;47.60;;
21519;SDS011;10921;53.614;9.882;2022-09-09T05:53:46;59.55;;;48.25;;
21519;SDS011;10921;53.614;9.882;2022-09-09T05:56:20;58.67;;;46.00;;
21519;SDS011;10921;53.614;9.882;2022-09-09T05:58:55;64.15;;;44.42;;
21519;SDS011;10921;53.614;9.882;2022-09-09T06:01:28;53.70;;;44.95;;
21519;SDS011;10921;53.614;9.882;2022-09-09T06:04:02;56.35;;;44.78;;
21519;SDS011;10921;53.614;9.882;2022-09-09T06:06:31;52.15;;;42.63;;
21519;SDS011;10921;53.614;9.882;2022-09-09T06:09:03;52.17;;;42.50;;
21519;SDS011;10921;53.614;9.882;2022-09-09T06:11:38;46.95;;;41.80;;
21519;SDS011;10921;53.614;9.882;2022-09-09T06:14:06;52.40;;;40.03;;
21519;SDS011;10921;53.614;9.882;2022-09-09T06:16:34;48.03;;;39.88;;
21519;SDS011;10921;53.614;9.882;2022-09-09T06:19:01;46.92;;;38.95;;
21519;SDS011;10921;53.614;9.882;2022-09-09T06:24:02;42.33;;;37.83;;
21519;SDS011;10921;53.614;9.882;2022-09-09T06:26:31;45.47;;;37.55;;
21519;SDS011;10921;53.614;9.882;2022-09-09T06:28:59;46.03;;;38.08;;
21519;SDS011;10921;53.614;9.882;2022-09-09T06:31:29;45.75;;;38.30;;
21519;SDS011;10921;53.614;9.882;2022-09-09T06:33:58;42.00;;;37.33;;
21519;SDS011;10921;53.614;9.882;2022-09-09T06:36:26;42.10;;;36.88;;
21519;SDS011;10921;53.614;9.882;2022-09-09T06:38:58;41.17;;;36.88;;
21519;SDS011;10921;53.614;9.882;2022-09-09T06:41:26;44.10;;;38.22;;
21519;SDS011;10921;53.614;9.882;2022-09-09T06:43:58;44.90;;;37.75;;
21519;SDS011;10921;53.614;9.882;2022-09-09T06:46:29;41.35;;;36.75;;
21519;SDS011;10921;53.614;9.882;2022-09-09T06:48:59;42.72;;;37.55;;
21519;SDS011;10921;53.614;9.882;2022-09-09T06:51:32;43.60;;;36.50;;
21519;SDS011;10921;53.614;9.882;2022-09-09T06:54:02;40.90;;;36.75;;
21519;SDS011;10921;53.614;9.882;2022-09-09T06:56:34;40.73;;;36.30;;
21519;SDS011;10921;53.614;9.882;2022-09-09T06:59:05;40.40;;;36.42;;
21519;SDS011;10921;53.614;9.882;2022-09-09T07:01:36;41.33;;;36.97;;
21519;SDS011;10921;53.614;9.882;2022-09-09T07:04:07;44.92;;;37.08;;
21519;SDS011;10921;53.614;9.882;2022-09-09T07:06:38;41.00;;;36.63;;
21519;SDS011;10921;53.614;9.882;2022-09-09T07:09:10;42.58;;;36.92;;
21519;SDS011;10921;53.614;9.882;2022-09-09T07:11:40;40.45;;;36.30;;
21519;SDS011;10921;53.614;9.882;2022-09-09T07:14:09;41.35;;;37.20;;
21519;SDS011;10921;53.614;9.882;2022-09-09T07:16:40;40.17;;;36.10;;
21519;SDS011;10921;53.614;9.882;2022-09-09T07:19:08;40.72;;;36.33;;
21519;SDS011;10921;53.614;9.882;2022-09-09T07:21:37;40.05;;;36.13;;
21519;SDS011;10921;53.614;9.882;2022-09-09T07:24:10;38.50;;;34.58;;
21519;SDS011;10921;53.614;9.882;2022-09-09T07:26:40;38.90;;;35.00;;
21519;SDS011;10921;53.614;9.882;2022-09-09T07:29:09;39.38;;;35.10;;
21519;SDS011;10921;53.614;9.882;2022-09-09T07:31:45;37.85;;;34.22;;
21519;SDS011;10921;53.614;9.882;2022-09-09T07:34:12;38.17;;;34.28;;
21519;SDS011;10921;53.614;9.882;2022-09-09T07:36:39;37.35;;;33.67;;
21519;SDS011;10921;53.614;9.882;2022-09-09T07:39:11;36.05;;;32.75;;
21519;SDS011;10921;53.614;9.882;2022-09-09T07:41:46;36.22;;;32.83;;
21519;SDS011;10921;53.614;9.882;2022-09-09T07:44:14;36.08;;;32.45;;
21519;SDS011;10921;53.614;9.882;2022-09-09T07:46:43;35.27;;;32.13;;
21519;SDS011;10921;53.614;9.882;2022-09-09T07:49:11;35.95;;;32.70;;
21519;SDS011;10921;53.614;9.882;2022-09-09T07:51:39;34.50;;;31.48;;
21519;SDS011;10921;53.614;9.882;2022-09-09T07:54:08;34.50;;;31.10;;
21519;SDS011;10921;53.614;9.882;2022-09-09T07:56:37;32.83;;;29.40;;
21519;SDS011;10921;53.614;9.882;2022-09-09T07:59:05;30.75;;;27.75;;
21519;SDS011;10921;53.614;9.882;2022-09-09T08:01:34;29.38;;;26.67;;
21519;SDS011;10921;53.614;9.882;2022-09-09T08:04:12;27.70;;;25.27;;
21519;SDS011;10921;53.614;9.882;2022-09-09T08:06:45;27.25;;;24.77;;
21519;SDS011;10921;53.614;9.882;2022-09-09T08:09:16;24.90;;;22.52;;
21519;SDS011;10921;53.614;9.882;2022-09-09T08:11:43;23.98;;;21.63;;
21519;SDS011;10921;53.614;9.882;2022-09-09T08:14:10;22.75;;;20.58;;
21519;SDS011;10921;53.614;9.882;2022-09-09T08:16:42;22.02;;;19.88;;
21519;SDS011;10921;53.614;9.882;2022-09-09T08:19:10;20.45;;;18.45;;
21519;SDS011;10921;53.614;9.882;2022-09-09T08:21:37;19.52;;;17.83;;
21519;SDS011;10921;53.614;9.882;2022-09-09T08:24:06;19.20;;;17.40;;
21519;SDS011;10921;53.614;9.882;2022-09-09T08:26:34;19.20;;;17.55;;
21519;SDS011;10921;53.614;9.882;2022-09-09T08:29:04;18.20;;;16.40;;
21519;SDS011;10921;53.614;9.882;2022-09-09T08:31:34;20.77;;;16.77;;
21519;SDS011;10921;53.614;9.882;2022-09-09T08:34:03;16.92;;;15.15;;
21519;SDS011;10921;53.614;9.882;2022-09-09T08:36:32;17.10;;;15.50;;
21519;SDS011;10921;53.614;9.882;2022-09-09T08:39:01;17.75;;;14.88;;
21519;SDS011;10921;53.614;9.882;2022-09-09T08:47:00;15.07;;;13.50;;
21519;SDS011;10921;53.614;9.882;2022-09-09T08:50:08;14.73;;;13.13;;
21519;SDS011;10921;53.614;9.882;2022-09-09T08:55:24;14.80;;;13.50;;
21519;SDS011;10921;53.614;9.882;2022-09-09T08:57:55;15.27;;;13.65;;
21519;SDS011;10921;53.614;9.882;2022-09-09T09:00:25;14.07;;;12.80;;
21519;SDS011;10921;53.614;9.882;2022-09-09T09:06:02;14.90;;;13.32;;
21519;SDS011;10921;53.614;9.882;2022-09-09T09:11:23;13.65;;;12.45;;
21519;SDS011;10921;53.614;9.882;2022-09-09T09:16:40;14.65;;;13.10;;
21519;SDS011;10921;53.614;9.882;2022-09-09T09:19:28;13.95;;;12.65;;
21519;SDS011;10921;53.614;9.882;2022-09-09T09:24:27;12.88;;;11.77;;
21519;SDS011;10921;53.614;9.882;2022-09-09T09:27:15;12.68;;;11.48;;
21519;SDS011;10921;53.614;9.882;2022-09-09T09:29:47;12.50;;;11.30;;
21519;SDS011;10921;53.614;9.882;2022-09-09T09:32:36;12.02;;;11.02;;
21519;SDS011;10921;53.614;9.882;2022-09-09T09:35:10;12.10;;;11.07;;
21519;SDS011;10921;53.614;9.882;2022-09-09T09:37:39;12.38;;;11.05;;
21519;SDS011;10921;53.614;9.882;2022-09-09T09:40:27;12.48;;;11.20;;
21519;SDS011;10921;53.614;9.882;2022-09-09T09:42:54;11.52;;;10.73;;
21519;SDS011;10921;53.614;9.882;2022-09-09T09:45:43;11.50;;;10.50;;
21519;SDS011;10921;53.614;9.882;2022-09-09T09:48:34;11.30;;;10.40;;
21519;SDS011;10921;53.614;9.882;2022-09-09T09:51:03;11.68;;;10.50;;
21519;SDS011;10921;53.614;9.882;2022-09-09T09:53:36;11.20;;;10.30;;
21519;SDS011;10921;53.614;9.882;2022-09-09T09:56:05;12.60;;;9.98;;
21519;SDS011;10921;53.614;9.882;2022-09-09T10:01:23;10.90;;;10.10;;
21519;SDS011;10921;53.614;9.882;2022-09-09T10:03:51;10.38;;;9.57;;
21519;SDS011;10921;53.614;9.882;2022-09-09T10:06:29;354.88;;;56.55;;
21519;SDS011;10921;53.614;9.882;2022-09-09T10:09:01;30.63;;;11.63;;
21519;SDS011;10921;53.614;9.882;2022-09-09T10:11:34;11.13;;;10.02;;
21519;SDS011;10921;53.614;9.882;2022-09-09T10:14:08;10.57;;;9.68;;
21519;SDS011;10921;53.614;9.882;2022-09-09T10:17:08;11.13;;;10.02;;
21519;SDS011;10921;53.614;9.882;2022-09-09T10:23:23;10.77;;;9.43;;
21519;SDS011;10921;53.614;9.882;2022-09-09T10:26:16;9.60;;;8.80;;
21519;SDS011;10921;53.614;9.882;2022-09-09T10:48:36;8.40;;;7.80;;
21519;SDS011;10921;53.614;9.882;2022-09-09T10:51:40;8.15;;;7.35;;
21519;SDS011;10921;53.614;9.882;2022-09-09T10:54:36;9.00;;;7.90;;
21519;SDS011;10921;53.614;9.882;2022-09-09T10:57:13;9.18;;;7.80;;
21519;SDS011;10921;53.614;9.882;2022-09-09T10:59:52;9.43;;;8.73;;
21519;SDS011;10921;53.614;9.882;2022-09-09T11:02:31;10.20;;;9.40;;
21519;SDS011;10921;53.614;9.882;2022-09-09T11:05:08;10.25;;;9.35;;
21519;SDS011;10921;53.614;9.882;2022-09-09T11:07:44;10.48;;;9.57;;
21519;SDS011;10921;53.614;9.882;2022-09-09T11:16:17;10.38;;;9.57;;
21519;SDS011;10921;53.614;9.882;2022-09-09T11:18:45;10.40;;;9.60;;
21519;SDS011;10921;53.614;9.882;2022-09-09T11:21:18;11.48;;;9.80;;
21519;SDS011;10921;53.614;9.882;2022-09-09T11:23:54;10.70;;;9.80;;
21519;SDS011;10921;53.614;9.882;2022-09-09T11:26:29;10.75;;;9.65;;
21519;SDS011;10921;53.614;9.882;2022-09-09T11:29:22;10.38;;;9.50;;
21519;SDS011;10921;53.614;9.882;2022-09-09T11:40:59;10.50;;;9.50;;
21519;SDS011;10921;53.614;9.882;2022-09-09T11:43:33;8.98;;;8.27;;
21519;SDS011;10921;53.614;9.882;2022-09-09T11:46:04;9.40;;;8.50;;
21519;SDS011;10921;53.614;9.882;2022-09-09T11:48:33;9.40;;;8.60;;
21519;SDS011;10921;53.614;9.882;2022-09-09T11:51:12;10.05;;;8.70;;
21519;SDS011;10921;53.614;9.882;2022-09-09T11:56:24;9.18;;;8.32;;
21519;SDS011;10921;53.614;9.882;2022-09-09T11:58:54;9.05;;;8.25;;
21519;SDS011;10921;53.614;9.882;2022-09-09T12:06:57;12.23;;;8.80;;
21519;SDS011;10921;53.614;9.882;2022-09-09T12:09:48;9.85;;;8.77;;
21519;SDS011;10921;53.614;9.882;2022-09-09T12:12:26;9.32;;;8.52;;
21519;SDS011;10921;53.614;9.882;2022-09-09T12:17:30;11.30;;;9.18;;
21519;SDS011;10921;53.614;9.882;2022-09-09T12:20:00;9.45;;;8.63;;
21519;SDS011;10921;53.614;9.882;2022-09-09T12:28:11;9.43;;;8.52;;
21519;SDS011;10921;53.614;9.882;2022-09-09T12:30:49;10.70;;;9.00;;
21519;SDS011;10921;53.614;9.882;2022-09-09T12:33:18;9.68;;;8.57;;
21519;SDS011;10921;53.614;9.882;2022-09-09T12:35:47;10.18;;;9.10;;
21519;SDS011;10921;53.614;9.882;2022-09-09T12:38:27;10.20;;;9.30;;
21519;SDS011;10921;53.614;9.882;2022-09-09T12:41:00;9.85;;;8.88;;
21519;SDS011;10921;53.614;9.882;2022-09-09T12:43:27;14.88;;;8.63;;
21519;SDS011;10921;53.614;9.882;2022-09-09T12:45:56;9.38;;;8.48;;
21519;SDS011;10921;53.614;9.882;2022-09-09T12:48:44;9.25;;;8.52;;
21519;SDS011;10921;53.614;9.882;2022-09-09T12:51:18;9.77;;;8.75;;
21519;SDS011;10921;53.614;9.882;2022-09-09T12:53:51;10.18;;;8.73;;
21519;SDS011;10921;53.614;9.882;2022-09-09T12:56:19;10.63;;;8.80;;
21519;SDS011;10921;53.614;9.882;2022-09-09T12:58:47;10.00;;;9.02;;
21519;SDS011;10921;53.614;9.882;2022-09-09T13:01:20;11.60;;;8.95;;
21519;SDS011;10921;53.614;9.882;2022-09-09T13:03:51;12.80;;;9.88;;
21519;SDS011;10921;53.614;9.882;2022-09-09T13:06:22;11.20;;;10.30;;
21519;SDS011;10921;53.614;9.882;2022-09-09T13:08:55;11.15;;;10.10;;
21519;SDS011;10921;53.614;9.882;2022-09-09T13:11:28;11.05;;;10.05;;
21519;SDS011;10921;53.614;9.882;2022-09-09T13:14:01;11.10;;;10.10;;
21519;SDS011;10921;53.614;9.882;2022-09-09T13:16:29;10.95;;;9.90;;
21519;SDS011;10921;53.614;9.882;2022-09-09T13:19:00;13.00;;;11.68;;
21519;SDS011;10921;53.614;9.882;2022-09-09T13:21:39;13.88;;;12.45;;
21519;SDS011;10921;53.614;9.882;2022-09-09T13:24:06;13.70;;;12.13;;
21519;SDS011;10921;53.614;9.882;2022-09-09T13:26:57;12.07;;;11.07;;
21519;SDS011;10921;53.614;9.882;2022-09-09T13:29:53;14.25;;;11.32;;
21519;SDS011;10921;53.614;9.882;2022-09-09T13:32:24;10.93;;;10.05;;
21519;SDS011;10921;53.614;9.882;2022-09-09T13:34:59;10.35;;;9.45;;
21519;SDS011;10921;53.614;9.882;2022-09-09T13:37:34;9.95;;;9.25;;
21519;SDS011;10921;53.614;9.882;2022-09-09T13:40:03;10.85;;;10.00;;
21519;SDS011;10921;53.614;9.882;2022-09-09T13:42:32;10.80;;;9.90;;
21519;SDS011;10921;53.614;9.882;2022-09-09T13:45:05;10.45;;;9.63;;
21519;SDS011;10921;53.614;9.882;2022-09-09T13:47:33;10.60;;;9.50;;
21519;SDS011;10921;53.614;9.882;2022-09-09T13:53:00;10.07;;;9.18;;
21519;SDS011;10921;53.614;9.882;2022-09-09T13:55:27;9.80;;;8.90;;
21519;SDS011;10921;53.614;9.882;2022-09-09T13:58:01;10.10;;;8.80;;
21519;SDS011;10921;53.614;9.882;2022-09-09T14:00:30;10.27;;;9.27;;
21519;SDS011;10921;53.614;9.882;2022-09-09T14:02:58;9.43;;;8.38;;
21519;SDS011;10921;53.614;9.882;2022-09-09T14:05:27;10.55;;;8.70;;
21519;SDS011;10921;53.614;9.882;2022-09-09T14:07:56;10.77;;;9.00;;
21519;SDS011;10921;53.614;9.882;2022-09-09T14:10:24;10.27;;;9.30;;
21519;SDS011;10921;53.614;9.882;2022-09-09T14:12:50;10.02;;;9.00;;
21519;SDS011;10921;53.614;9.882;2022-09-09T14:15:17;10.13;;;9.23;;
21519;SDS011;10921;53.614;9.882;2022-09-09T14:17:43;12.38;;;9.98;;
21519;SDS011;10921;53.614;9.882;2022-09-09T14:20:10;12.45;;;10.27;;
21519;SDS011;10921;53.614;9.882;2022-09-09T14:22:38;12.00;;;10.77;;
21519;SDS011;10921;53.614;9.882;2022-09-09T14:25:05;12.07;;;10.65;;
21519;SDS011;10921;53.614;9.882;2022-09-09T14:27:32;12.07;;;10.98;;
21519;SDS011;10921;53.614;9.882;2022-09-09T14:29:59;11.27;;;10.25;;
21519;SDS011;10921;53.614;9.882;2022-09-09T14:32:27;12.73;;;10.80;;
21519;SDS011;10921;53.614;9.882;2022-09-09T14:34:53;12.80;;;11.57;;
21519;SDS011;10921;53.614;9.882;2022-09-09T14:37:20;12.88;;;11.77;;
21519;SDS011;10921;53.614;9.882;2022-09-09T14:39:46;13.90;;;12.60;;
21519;SDS011;10921;53.614;9.882;2022-09-09T14:42:13;13.82;;;12.50;;
21519;SDS011;10921;53.614;9.882;2022-09-09T14:44:40;14.55;;;13.05;;
21519;SDS011;10921;53.614;9.882;2022-09-09T14:47:07;14.52;;;12.98;;
21519;SDS011;10921;53.614;9.882;2022-09-09T14:49:34;16.15;;;13.13;;
21519;SDS011;10921;53.614;9.882;2022-09-09T14:52:01;13.90;;;12.70;;
21519;SDS011;10921;53.614;9.882;2022-09-09T14:54:28;17.58;;;13.30;;
21519;SDS011;10921;53.614;9.882;2022-09-09T14:56:55;14.45;;;12.95;;
21519;SDS011;10921;53.614;9.882;2022-09-09T14:59:23;18.33;;;12.35;;
21519;SDS011;10921;53.614;9.882;2022-09-09T15:01:49;13.27;;;12.05;;
21519;SDS011;10921;53.614;9.882;2022-09-09T15:04:16;14.48;;;12.50;;
21519;SDS011;10921;53.614;9.882;2022-09-09T15:06:42;13.20;;;11.90;;
21519;SDS011;10921;53.614;9.882;2022-09-09T15:11:39;11.90;;;10.90;;
21519;SDS011;10921;53.614;9.882;2022-09-09T15:14:06;12.60;;;11.50;;
21519;SDS011;10921;53.614;9.882;2022-09-09T15:16:34;12.85;;;11.70;;
21519;SDS011;10921;53.614;9.882;2022-09-09T15:19:02;12.68;;;11.68;;
21519;SDS011;10921;53.614;9.882;2022-09-09T15:21:29;13.52;;;12.02;;
21519;SDS011;10921;53.614;9.882;2022-09-09T15:23:58;15.13;;;12.47;;
21519;SDS011;10921;53.614;9.882;2022-09-09T15:26:25;13.18;;;12.13;;
21519;SDS011;10921;53.614;9.882;2022-09-09T15:28:53;14.60;;;13.30;;
21519;SDS011;10921;53.614;9.882;2022-09-09T15:31:22;15.75;;;13.95;;
21519;SDS011;10921;53.614;9.882;2022-09-09T15:33:53;15.48;;;14.10;;
21519;SDS011;10921;53.614;9.882;2022-09-09T15:36:28;15.30;;;13.90;;
21519;SDS011;10921;53.614;9.882;2022-09-09T15:38:54;16.02;;;14.65;;
21519;SDS011;10921;53.614;9.882;2022-09-09T15:41:22;17.20;;;15.10;;
21519;SDS011;10921;53.614;9.882;2022-09-09T15:43:50;16.92;;;15.18;;
21519;SDS011;10921;53.614;9.882;2022-09-09T15:49:02;15.82;;;14.45;;
21519;SDS011;10921;53.614;9.882;2022-09-09T15:51:58;16.23;;;14.52;;
21519;SDS011;10921;53.614;9.882;2022-09-09T15:54:28;15.32;;;13.93;;
21519;SDS011;10921;53.614;9.882;2022-09-09T15:56:59;15.50;;;14.10;;
21519;SDS011;10921;53.614;9.882;2022-09-09T15:59:27;16.25;;;13.52;;
21519;SDS011;10921;53.614;9.882;2022-09-09T16:01:55;15.18;;;13.82;;
21519;SDS011;10921;53.614;9.882;2022-09-09T16:04:23;14.35;;;13.25;;
21519;SDS011;10921;53.614;9.882;2022-09-09T16:06:55;14.10;;;12.80;;
21519;SDS011;10921;53.614;9.882;2022-09-09T16:09:24;15.75;;;13.18;;
21519;SDS011;10921;53.614;9.882;2022-09-09T16:11:52;13.25;;;12.13;;
21519;SDS011;10921;53.614;9.882;2022-09-09T16:14:20;14.35;;;12.98;;
21519;SDS011;10921;53.614;9.882;2022-09-09T16:16:47;15.55;;;12.88;;
21519;SDS011;10921;53.614;9.882;2022-09-09T16:19:15;13.60;;;12.27;;
21519;SDS011;10921;53.614;9.882;2022-09-09T16:21:45;13.18;;;11.88;;
21519;SDS011;10921;53.614;9.882;2022-09-09T16:24:17;17.48;;;12.05;;
21519;SDS011;10921;53.614;9.882;2022-09-09T16:26:46;11.80;;;10.88;;
21519;SDS011;10921;53.614;9.882;2022-09-09T16:29:18;12.02;;;10.90;;
21519;SDS011;10921;53.614;9.882;2022-09-09T16:31:45;10.77;;;9.90;;
21519;SDS011;10921;53.614;9.882;2022-09-09T16:34:13;11.60;;;10.52;;
21519;SDS011;10921;53.614;9.882;2022-09-09T16:36:41;10.88;;;9.93;;
21519;SDS011;10921;53.614;9.882;2022-09-09T16:39:09;10.88;;;9.77;;
21519;SDS011;10921;53.614;9.882;2022-09-09T16:41:37;10.93;;;10.00;;
21519;SDS011;10921;53.614;9.882;2022-09-09T16:44:06;11.75;;;10.00;;
21519;SDS011;10921;53.614;9.882;2022-09-09T16:46:35;10.63;;;9.63;;
21519;SDS011;10921;53.614;9.882;2022-09-09T16:49:05;10.60;;;9.70;;
21519;SDS011;10921;53.614;9.882;2022-09-09T16:51:35;10.80;;;9.80;;
21519;SDS011;10921;53.614;9.882;2022-09-09T16:54:04;10.13;;;9.23;;
21519;SDS011;10921;53.614;9.882;2022-09-09T16:56:35;11.30;;;9.70;;
21519;SDS011;10921;53.614;9.882;2022-09-09T16:59:10;10.25;;;9.32;;